sensor_id;sensor_type;location;lat;lon;timestamp;pressure;altitude;pressure_sealevel;temperature;humidity
78990;BME280;68390;52.130;21.218;2023-06-22T00:00:51;100586.84;;;19.39;92.72
78990;BME280;68390;52.130;21.218;2023-06-22T00:03:18;100588.56;;;19.34;92.38
78990;BME280;68390;52.130;21.218;2023-06-22T00:05:43;100596.28;;;19.32;92.18
78990;BME280;68390;52.130;21.218;2023-06-22T00:08:09;100586.03;;;19.26;92.75
78990;BME280;68390;52.130;21.218;2023-06-22T00:10:34;100584.78;;;19.22;92.67
78990;BME280;68390;52.130;21.218;2023-06-22T00:13:00;100585.69;;;19.16;92.54
78990;BME280;68390;52.130;21.218;2023-06-22T00:15:26;100598.09;;;19.13;92.70
78990;BME280;68390;52.130;21.218;2023-06-22T00:17:51;100595.53;;;19.12;92.43
78990;BME280;68390;52.130;21.218;2023-06-22T00:20:16;100596.00;;;19.09;92.83
78990;BME280;68390;52.130;21.218;2023-06-22T00:22:45;100583.59;;;19.04;92.86
78990;BME280;68390;52.130;21.218;2023-06-22T00:25:13;100590.44;;;19.02;92.78
78990;BME280;68390;52.130;21.218;2023-06-22T00:27:38;100587.88;;;19.00;92.33
78990;BME280;68390;52.130;21.218;2023-06-22T00:30:04;100590.03;;;18.98;92.75
78990;BME280;68390;52.130;21.218;2023-06-22T00:32:29;100598.63;;;18.97;92.90
78990;BME280;68390;52.130;21.218;2023-06-22T00:34:55;100590.03;;;18.98;93.45
78990;BME280;68390;52.130;21.218;2023-06-22T00:37:20;100590.47;;;18.95;93.30
78990;BME280;68390;52.130;21.218;2023-06-22T00:39:51;100582.78;;;18.91;93.46
78990;BME280;68390;52.130;21.218;2023-06-22T00:42:16;100591.38;;;18.89;93.33
78990;BME280;68390;52.130;21.218;2023-06-22T00:44:42;100591.81;;;18.86;93.45
78990;BME280;68390;52.130;21.218;2023-06-22T00:47:07;100590.09;;;18.85;93.54
78990;BME280;68390;52.130;21.218;2023-06-22T00:49:32;100584.09;;;18.82;93.36
78990;BME280;68390;52.130;21.218;2023-06-22T00:51:58;100579.00;;;18.79;93.57
78990;BME280;68390;52.130;21.218;2023-06-22T00:54:24;100588.00;;;18.74;93.96
78990;BME280;68390;52.130;21.218;2023-06-22T00:56:53;100583.72;;;18.72;93.84
78990;BME280;68390;52.130;21.218;2023-06-22T00:59:26;100574.97;;;18.68;94.34
78990;BME280;68390;52.130;21.218;2023-06-22T01:01:51;100581.81;;;18.65;94.50
78990;BME280;68390;52.130;21.218;2023-06-22T01:04:17;100578.81;;;18.60;94.17
78990;BME280;68390;52.130;21.218;2023-06-22T01:06:56;100575.59;;;18.57;94.20
78990;BME280;68390;52.130;21.218;2023-06-22T01:09:32;100566.41;;;18.50;94.69
78990;BME280;68390;52.130;21.218;2023-06-22T01:12:04;100570.50;;;18.47;94.74
78990;BME280;68390;52.130;21.218;2023-06-22T01:14:42;100559.59;;;18.46;94.82
78990;BME280;68390;52.130;21.218;2023-06-22T01:17:09;100551.69;;;18.43;94.57
78990;BME280;68390;52.130;21.218;2023-06-22T01:19:52;100558.31;;;18.42;94.88
78990;BME280;68390;52.130;21.218;2023-06-22T01:22:29;100552.56;;;18.37;94.94
78990;BME280;68390;52.130;21.218;2023-06-22T01:25:20;100544.84;;;18.32;95.01
78990;BME280;68390;52.130;21.218;2023-06-22T01:28:05;100547.00;;;18.30;95.04
78990;BME280;68390;52.130;21.218;2023-06-22T01:30:41;100542.97;;;18.26;95.84
78990;BME280;68390;52.130;21.218;2023-06-22T01:33:10;100541.47;;;18.23;95.59
78990;BME280;68390;52.130;21.218;2023-06-22T01:35:37;100540.19;;;18.19;95.45
78990;BME280;68390;52.130;21.218;2023-06-22T01:38:04;100551.50;;;18.18;96.10
78990;BME280;68390;52.130;21.218;2023-06-22T01:40:31;100544.47;;;18.15;95.74
78990;BME280;68390;52.130;21.218;2023-06-22T01:43:00;100543.19;;;18.11;95.87
78990;BME280;68390;52.130;21.218;2023-06-22T01:45:26;100534.66;;;18.06;95.93
78990;BME280;68390;52.130;21.218;2023-06-22T01:47:52;100542.75;;;18.08;95.46
78990;BME280;68390;52.130;21.218;2023-06-22T01:50:17;100548.56;;;18.06;95.65
78990;BME280;68390;52.130;21.218;2023-06-22T01:52:43;100539.78;;;18.03;95.55
78990;BME280;68390;52.130;21.218;2023-06-22T01:55:08;100545.56;;;18.01;95.95
78990;BME280;68390;52.130;21.218;2023-06-22T01:57:34;100548.75;;;17.98;95.88
78990;BME280;68390;52.130;21.218;2023-06-22T02:00:04;100553.44;;;17.97;95.38
78990;BME280;68390;52.130;21.218;2023-06-22T02:02:46;100542.78;;;17.94;96.04
78990;BME280;68390;52.130;21.218;2023-06-22T02:05:17;100547.50;;;17.94;96.18
78990;BME280;68390;52.130;21.218;2023-06-22T02:07:53;100552.41;;;17.92;96.60
78990;BME280;68390;52.130;21.218;2023-06-22T02:10:21;100549.19;;;17.88;96.32
78990;BME280;68390;52.130;21.218;2023-06-22T02:12:48;100562.44;;;17.93;95.97
78990;BME280;68390;52.130;21.218;2023-06-22T02:15:15;100561.59;;;17.92;96.67
78990;BME280;68390;52.130;21.218;2023-06-22T02:17:42;100566.09;;;17.93;96.18
78990;BME280;68390;52.130;21.218;2023-06-22T02:20:16;100569.72;;;17.94;95.95
78990;BME280;68390;52.130;21.218;2023-06-22T02:22:41;100573.16;;;17.96;96.31
78990;BME280;68390;52.130;21.218;2023-06-22T02:25:07;100580.38;;;17.97;96.41
78990;BME280;68390;52.130;21.218;2023-06-22T02:27:33;100598.56;;;18.00;96.60
78990;BME280;68390;52.130;21.218;2023-06-22T02:29:58;100594.94;;;17.99;96.43
78990;BME280;68390;52.130;21.218;2023-06-22T02:32:23;100603.91;;;18.01;96.68
78990;BME280;68390;52.130;21.218;2023-06-22T02:34:49;100602.19;;;18.00;97.32
78990;BME280;68390;52.130;21.218;2023-06-22T02:37:14;100614.59;;;18.04;96.99
78990;BME280;68390;52.130;21.218;2023-06-22T02:39:40;100619.50;;;18.09;97.08
78990;BME280;68390;52.130;21.218;2023-06-22T02:42:06;100613.31;;;18.13;96.69
78990;BME280;68390;52.130;21.218;2023-06-22T02:44:31;100610.97;;;18.17;97.08
78990;BME280;68390;52.130;21.218;2023-06-22T02:46:56;100608.81;;;18.19;97.35
78990;BME280;68390;52.130;21.218;2023-06-22T02:49:22;100619.28;;;18.23;97.21
78990;BME280;68390;52.130;21.218;2023-06-22T02:51:48;100627.84;;;18.28;96.93
78990;BME280;68390;52.130;21.218;2023-06-22T02:54:14;100620.13;;;18.30;96.99
78990;BME280;68390;52.130;21.218;2023-06-22T02:56:41;100637.03;;;18.36;97.01
78990;BME280;68390;52.130;21.218;2023-06-22T02:59:09;100637.66;;;18.38;96.90
78990;BME280;68390;52.130;21.218;2023-06-22T03:01:36;100641.09;;;18.40;96.90
78990;BME280;68390;52.130;21.218;2023-06-22T03:04:08;100641.53;;;18.43;96.92
78990;BME280;68390;52.130;21.218;2023-06-22T03:06:33;100639.38;;;18.45;96.59
78990;BME280;68390;52.130;21.218;2023-06-22T03:09:00;100637.25;;;18.47;97.01
78990;BME280;68390;52.130;21.218;2023-06-22T03:11:26;100637.84;;;18.49;96.75
78990;BME280;68390;52.130;21.218;2023-06-22T03:13:52;100631.91;;;18.46;96.53
78990;BME280;68390;52.130;21.218;2023-06-22T03:16:18;100649.41;;;18.53;96.35
78990;BME280;68390;52.130;21.218;2023-06-22T03:18:44;100655.63;;;18.55;96.65
78990;BME280;68390;52.130;21.218;2023-06-22T03:21:09;100659.06;;;18.57;96.57
78990;BME280;68390;52.130;21.218;2023-06-22T03:23:35;100658.00;;;18.58;96.48
78990;BME280;68390;52.130;21.218;2023-06-22T03:26:01;100666.34;;;18.58;96.47
78990;BME280;68390;52.130;21.218;2023-06-22T03:28:26;100662.47;;;18.59;96.81
78990;BME280;68390;52.130;21.218;2023-06-22T03:30:52;100653.28;;;18.58;96.35
78990;BME280;68390;52.130;21.218;2023-06-22T03:33:17;100650.94;;;18.62;96.62
78990;BME280;68390;52.130;21.218;2023-06-22T03:35:42;100659.50;;;18.67;96.82
78990;BME280;68390;52.130;21.218;2023-06-22T03:38:08;100670.16;;;18.70;96.99
78990;BME280;68390;52.130;21.218;2023-06-22T03:40:33;100670.59;;;18.74;97.42
78990;BME280;68390;52.130;21.218;2023-06-22T03:42:58;100671.03;;;18.77;97.16
78990;BME280;68390;52.130;21.218;2023-06-22T03:45:24;100661.38;;;18.80;97.31
78990;BME280;68390;52.130;21.218;2023-06-22T03:47:49;100668.66;;;18.81;97.20
78990;BME280;68390;52.130;21.218;2023-06-22T03:50:14;100670.56;;;18.80;97.30
78990;BME280;68390;52.130;21.218;2023-06-22T03:52:40;100681.28;;;18.83;97.41
78990;BME280;68390;52.130;21.218;2023-06-22T03:55:06;100681.28;;;18.83;97.27
78990;BME280;68390;52.130;21.218;2023-06-22T03:57:32;100681.28;;;18.83;97.24
78990;BME280;68390;52.130;21.218;2023-06-22T03:59:57;100686.00;;;18.89;97.33
78990;BME280;68390;52.130;21.218;2023-06-22T04:02:23;100688.97;;;18.94;97.96
78990;BME280;68390;52.130;21.218;2023-06-22T04:04:49;100692.56;;;19.01;97.39
78990;BME280;68390;52.130;21.218;2023-06-22T04:07:14;100689.78;;;19.08;97.18
78990;BME280;68390;52.130;21.218;2023-06-22T04:09:40;100682.47;;;19.14;97.36
78990;BME280;68390;52.130;21.218;2023-06-22T04:12:05;100690.56;;;19.22;97.49
78990;BME280;68390;52.130;21.218;2023-06-22T04:14:31;100692.06;;;19.31;97.55
78990;BME280;68390;52.130;21.218;2023-06-22T04:16:57;100686.69;;;19.36;97.73
78990;BME280;68390;52.130;21.218;2023-06-22T04:19:23;100687.94;;;19.40;97.32
78990;BME280;68390;52.130;21.218;2023-06-22T04:21:48;100694.78;;;19.51;96.94
78990;BME280;68390;52.130;21.218;2023-06-22T04:24:14;100685.75;;;19.55;97.04
78990;BME280;68390;52.130;21.218;2023-06-22T04:26:40;100695.34;;;19.66;96.92
78990;BME280;68390;52.130;21.218;2023-06-22T04:29:08;100698.72;;;19.74;96.53
78990;BME280;68390;52.130;21.218;2023-06-22T04:31:36;100700.16;;;19.84;96.55
78990;BME280;68390;52.130;21.218;2023-06-22T04:34:06;100694.16;;;19.87;95.46
78990;BME280;68390;52.130;21.218;2023-06-22T04:36:35;100697.31;;;19.97;96.01
78990;BME280;68390;52.130;21.218;2023-06-22T04:39:07;100699.81;;;20.05;95.84
78990;BME280;68390;52.130;21.218;2023-06-22T04:41:38;100703.44;;;20.12;95.00
78990;BME280;68390;52.130;21.218;2023-06-22T04:44:17;100700.34;;;20.20;95.04
78990;BME280;68390;52.130;21.218;2023-06-22T04:46:50;100693.00;;;20.26;93.90
78990;BME280;68390;52.130;21.218;2023-06-22T04:49:20;100699.19;;;20.34;94.15
78990;BME280;68390;52.130;21.218;2023-06-22T04:51:45;100699.59;;;20.38;92.70
78990;BME280;68390;52.130;21.218;2023-06-22T04:54:10;100686.06;;;20.41;92.58
78990;BME280;68390;52.130;21.218;2023-06-22T04:56:36;100686.84;;;20.48;92.33
78990;BME280;68390;52.130;21.218;2023-06-22T04:59:02;100692.75;;;20.59;92.09
78990;BME280;68390;52.130;21.218;2023-06-22T05:01:28;100687.66;;;20.56;90.71
78990;BME280;68390;52.130;21.218;2023-06-22T05:03:56;100685.03;;;20.61;89.97
78990;BME280;68390;52.130;21.218;2023-06-22T05:06:25;100686.88;;;20.67;90.61
78990;BME280;68390;52.130;21.218;2023-06-22T05:08:53;100685.97;;;20.73;90.83
78990;BME280;68390;52.130;21.218;2023-06-22T05:11:25;100692.56;;;20.78;89.27
78990;BME280;68390;52.130;21.218;2023-06-22T05:13:52;100691.25;;;20.81;90.04
78990;BME280;68390;52.130;21.218;2023-06-22T05:16:19;100694.16;;;20.93;90.56
78990;BME280;68390;52.130;21.218;2023-06-22T05:18:52;100696.00;;;20.99;88.98
78990;BME280;68390;52.130;21.218;2023-06-22T05:21:21;100688.78;;;21.09;89.61
78990;BME280;68390;52.130;21.218;2023-06-22T05:23:47;100692.38;;;21.16;89.75
78990;BME280;68390;52.130;21.218;2023-06-22T05:26:12;100694.91;;;21.24;89.49
78990;BME280;68390;52.130;21.218;2023-06-22T05:28:37;100687.38;;;21.25;88.91
78990;BME280;68390;52.130;21.218;2023-06-22T05:31:03;100691.69;;;21.21;87.94
78990;BME280;68390;52.130;21.218;2023-06-22T05:33:29;100697.75;;;21.18;87.52
78990;BME280;68390;52.130;21.218;2023-06-22T05:35:54;100708.06;;;21.17;87.74
78990;BME280;68390;52.130;21.218;2023-06-22T05:38:19;100714.31;;;21.13;87.07
78990;BME280;68390;52.130;21.218;2023-06-22T05:40:45;100721.00;;;21.12;86.29
78990;BME280;68390;52.130;21.218;2023-06-22T05:43:10;100719.91;;;21.13;87.31
78990;BME280;68390;52.130;21.218;2023-06-22T05:45:36;100724.50;;;21.07;86.78
78990;BME280;68390;52.130;21.218;2023-06-22T05:48:01;100728.59;;;21.05;87.00
78990;BME280;68390;52.130;21.218;2023-06-22T05:50:26;100732.63;;;21.09;87.42
78990;BME280;68390;52.130;21.218;2023-06-22T05:52:52;100719.75;;;21.08;85.66
78990;BME280;68390;52.130;21.218;2023-06-22T05:55:17;100721.00;;;21.12;86.19
78990;BME280;68390;52.130;21.218;2023-06-22T05:57:44;100723.28;;;21.21;86.66
78990;BME280;68390;52.130;21.218;2023-06-22T06:00:10;100727.69;;;21.29;85.79
78990;BME280;68390;52.130;21.218;2023-06-22T06:02:36;100725.00;;;21.22;85.70
78990;BME280;68390;52.130;21.218;2023-06-22T06:05:02;100738.56;;;21.19;85.16
78990;BME280;68390;52.130;21.218;2023-06-22T06:07:28;100737.69;;;21.18;86.91
78990;BME280;68390;52.130;21.218;2023-06-22T06:09:54;100739.88;;;21.16;85.96
78990;BME280;68390;52.130;21.218;2023-06-22T06:12:19;100745.00;;;21.19;86.21
78990;BME280;68390;52.130;21.218;2023-06-22T06:14:45;100739.00;;;21.16;85.84
78990;BME280;68390;52.130;21.218;2023-06-22T06:17:10;100744.16;;;21.19;85.96
78990;BME280;68390;52.130;21.218;2023-06-22T06:19:36;100737.41;;;21.27;85.83
78990;BME280;68390;52.130;21.218;2023-06-22T06:22:01;100743.69;;;21.40;85.86
78990;BME280;68390;52.130;21.218;2023-06-22T06:24:26;100744.31;;;21.42;84.32
78990;BME280;68390;52.130;21.218;2023-06-22T06:26:52;100754.81;;;21.47;84.56
78990;BME280;68390;52.130;21.218;2023-06-22T06:29:17;100757.09;;;21.50;84.64
78990;BME280;68390;52.130;21.218;2023-06-22T06:31:43;100753.47;;;21.49;83.66
78990;BME280;68390;52.130;21.218;2023-06-22T06:34:08;100769.16;;;21.50;84.59
78990;BME280;68390;52.130;21.218;2023-06-22T06:36:33;100762.47;;;21.51;84.84
78990;BME280;68390;52.130;21.218;2023-06-22T06:38:59;100755.66;;;21.47;84.26
78990;BME280;68390;52.130;21.218;2023-06-22T06:41:24;100762.56;;;21.45;84.34
78990;BME280;68390;52.130;21.218;2023-06-22T06:43:50;100758.91;;;21.44;84.47
78990;BME280;68390;52.130;21.218;2023-06-22T06:46:15;100754.41;;;21.43;84.35
78990;BME280;68390;52.130;21.218;2023-06-22T06:48:40;100759.75;;;21.45;84.58
78990;BME280;68390;52.130;21.218;2023-06-22T06:51:06;100757.09;;;21.50;86.00
78990;BME280;68390;52.130;21.218;2023-06-22T06:53:35;100755.97;;;21.57;86.14
78990;BME280;68390;52.130;21.218;2023-06-22T06:56:00;100760.84;;;21.62;83.70
78990;BME280;68390;52.130;21.218;2023-06-22T06:58:26;100761.63;;;21.69;83.69
78990;BME280;68390;52.130;21.218;2023-06-22T07:00:51;100749.94;;;21.72;83.23
78990;BME280;68390;52.130;21.218;2023-06-22T07:03:16;100746.25;;;21.78;83.97
78990;BME280;68390;52.130;21.218;2023-06-22T07:05:42;100748.19;;;21.78;82.19
78990;BME280;68390;52.130;21.218;2023-06-22T07:08:07;100752.53;;;21.74;81.68
78990;BME280;68390;52.130;21.218;2023-06-22T07:10:33;100749.03;;;21.78;81.85
78990;BME280;68390;52.130;21.218;2023-06-22T07:12:58;100762.84;;;21.73;81.03
78990;BME280;68390;52.130;21.218;2023-06-22T07:15:24;100756.78;;;21.76;82.05
78990;BME280;68390;52.130;21.218;2023-06-22T07:17:49;100756.84;;;21.88;81.62
78990;BME280;68390;52.130;21.218;2023-06-22T07:20:14;100761.25;;;21.95;81.41
78990;BME280;68390;52.130;21.218;2023-06-22T07:22:41;100756.44;;;22.03;80.88
78990;BME280;68390;52.130;21.218;2023-06-22T07:25:08;100765.84;;;22.08;80.12
78990;BME280;68390;52.130;21.218;2023-06-22T07:27:42;100763.34;;;22.18;80.72
78990;BME280;68390;52.130;21.218;2023-06-22T07:30:09;100766.66;;;22.27;80.57
78990;BME280;68390;52.130;21.218;2023-06-22T07:32:35;100764.25;;;22.30;78.20
78990;BME280;68390;52.130;21.218;2023-06-22T07:35:01;100764.50;;;22.41;77.19
78990;BME280;68390;52.130;21.218;2023-06-22T07:37:28;100771.69;;;22.48;76.87
78990;BME280;68390;52.130;21.218;2023-06-22T07:39:54;100775.25;;;22.55;76.67
78990;BME280;68390;52.130;21.218;2023-06-22T07:42:24;100781.34;;;22.64;77.09
78990;BME280;68390;52.130;21.218;2023-06-22T07:44:49;100784.28;;;22.69;79.27
78990;BME280;68390;52.130;21.218;2023-06-22T07:47:16;100774.97;;;22.87;76.53
78990;BME280;68390;52.130;21.218;2023-06-22T07:49:43;100767.91;;;22.96;75.06
78990;BME280;68390;52.130;21.218;2023-06-22T07:52:08;100781.31;;;23.17;76.02
78990;BME280;68390;52.130;21.218;2023-06-22T07:54:34;100768.13;;;23.29;73.82
78990;BME280;68390;52.130;21.218;2023-06-22T07:56:59;100769.38;;;23.33;74.70
78990;BME280;68390;52.130;21.218;2023-06-22T07:59:24;100781.78;;;23.37;72.54
78990;BME280;68390;52.130;21.218;2023-06-22T08:01:50;100787.38;;;23.61;75.17
78990;BME280;68390;52.130;21.218;2023-06-22T08:04:15;100781.69;;;23.56;71.91
78990;BME280;68390;52.130;21.218;2023-06-22T08:06:41;100786.91;;;23.64;73.24
78990;BME280;68390;52.130;21.218;2023-06-22T08:09:06;100788.31;;;23.78;72.16
78990;BME280;68390;52.130;21.218;2023-06-22T08:11:32;100785.50;;;23.78;70.31
78990;BME280;68390;52.130;21.218;2023-06-22T08:13:57;100782.22;;;23.81;70.68
78990;BME280;68390;52.130;21.218;2023-06-22T08:16:23;100791.25;;;23.83;70.19
78990;BME280;68390;52.130;21.218;2023-06-22T08:18:49;100787.63;;;23.99;67.81
78990;BME280;68390;52.130;21.218;2023-06-22T08:21:14;100777.75;;;24.08;68.97
78990;BME280;68390;52.130;21.218;2023-06-22T08:23:40;100778.25;;;24.05;68.69
78990;BME280;68390;52.130;21.218;2023-06-22T08:26:06;100783.38;;;24.08;68.27
78990;BME280;68390;52.130;21.218;2023-06-22T08:28:31;100774.16;;;24.25;68.16
78990;BME280;68390;52.130;21.218;2023-06-22T08:30:56;100772.22;;;24.42;64.41
78990;BME280;68390;52.130;21.218;2023-06-22T08:33:22;100782.97;;;24.45;63.45
78990;BME280;68390;52.130;21.218;2023-06-22T08:35:57;100773.63;;;24.56;64.43
78990;BME280;68390;52.130;21.218;2023-06-22T08:38:23;100784.31;;;24.42;65.16
78990;BME280;68390;52.130;21.218;2023-06-22T08:40:48;100774.44;;;24.40;62.69
78990;BME280;68390;52.130;21.218;2023-06-22T08:43:14;100775.59;;;24.56;62.00
78990;BME280;68390;52.130;21.218;2023-06-22T08:45:39;100769.53;;;24.64;60.19
78990;BME280;68390;52.130;21.218;2023-06-22T08:48:05;100758.22;;;24.75;58.86
78990;BME280;68390;52.130;21.218;2023-06-22T08:50:30;100767.34;;;24.82;59.47
78990;BME280;68390;52.130;21.218;2023-06-22T08:52:56;100770.84;;;24.90;60.04
78990;BME280;68390;52.130;21.218;2023-06-22T08:55:21;100766.34;;;25.05;62.23
78990;BME280;68390;52.130;21.218;2023-06-22T08:57:47;100769.41;;;25.20;61.58
78990;BME280;68390;52.130;21.218;2023-06-22T09:00:12;100771.00;;;25.33;58.81
78990;BME280;68390;52.130;21.218;2023-06-22T09:02:43;100770.00;;;25.44;57.63
78990;BME280;68390;52.130;21.218;2023-06-22T09:05:09;100768.47;;;25.53;58.37
78990;BME280;68390;52.130;21.218;2023-06-22T09:07:34;100772.56;;;25.63;56.47
78990;BME280;68390;52.130;21.218;2023-06-22T09:10:00;100772.44;;;25.74;55.78
78990;BME280;68390;52.130;21.218;2023-06-22T09:12:25;100782.38;;;25.82;55.09
78990;BME280;68390;52.130;21.218;2023-06-22T09:14:52;100766.09;;;25.84;55.61
78990;BME280;68390;52.130;21.218;2023-06-22T09:17:18;100772.13;;;25.92;55.41
78990;BME280;68390;52.130;21.218;2023-06-22T09:19:43;100781.16;;;25.94;51.31
78990;BME280;68390;52.130;21.218;2023-06-22T09:22:09;100775.66;;;26.05;56.30
78990;BME280;68390;52.130;21.218;2023-06-22T09:24:34;100785.09;;;26.20;55.73
78990;BME280;68390;52.130;21.218;2023-06-22T09:26:59;100767.69;;;26.23;53.95
78990;BME280;68390;52.130;21.218;2023-06-22T09:29:25;100776.78;;;26.30;52.55
78990;BME280;68390;52.130;21.218;2023-06-22T09:31:50;100779.13;;;26.39;53.33
78990;BME280;68390;52.130;21.218;2023-06-22T09:34:16;100776.31;;;26.39;51.95
78990;BME280;68390;52.130;21.218;2023-06-22T09:36:45;100757.16;;;26.36;55.20
78990;BME280;68390;52.130;21.218;2023-06-22T09:39:10;100756.69;;;26.49;53.84
78990;BME280;68390;52.130;21.218;2023-06-22T09:41:36;100761.63;;;26.63;51.35
78990;BME280;68390;52.130;21.218;2023-06-22T09:44:01;100758.31;;;26.72;50.55
78990;BME280;68390;52.130;21.218;2023-06-22T09:46:27;100757.81;;;26.75;51.26
78990;BME280;68390;52.130;21.218;2023-06-22T09:48:53;100750.19;;;26.75;49.71
78990;BME280;68390;52.130;21.218;2023-06-22T09:51:18;100756.94;;;26.74;49.85
78990;BME280;68390;52.130;21.218;2023-06-22T09:53:45;100756.41;;;26.77;49.56
78990;BME280;68390;52.130;21.218;2023-06-22T09:56:10;100753.28;;;26.74;51.72
78990;BME280;68390;52.130;21.218;2023-06-22T09:58:45;100751.06;;;26.76;49.54
78990;BME280;68390;52.130;21.218;2023-06-22T10:01:12;100760.38;;;26.81;49.39
78990;BME280;68390;52.130;21.218;2023-06-22T10:03:38;100762.13;;;26.87;48.75
78990;BME280;68390;52.130;21.218;2023-06-22T10:06:03;100761.13;;;26.98;49.41
78990;BME280;68390;52.130;21.218;2023-06-22T10:08:29;100753.28;;;27.06;49.83
78990;BME280;68390;52.130;21.218;2023-06-22T10:10:54;100760.91;;;27.05;48.70
78990;BME280;68390;52.130;21.218;2023-06-22T10:13:19;100753.28;;;27.06;47.70
78990;BME280;68390;52.130;21.218;2023-06-22T10:15:45;100759.25;;;27.09;49.60
78990;BME280;68390;52.130;21.218;2023-06-22T10:18:15;100762.94;;;27.15;48.95
78990;BME280;68390;52.130;21.218;2023-06-22T10:20:41;100752.75;;;27.09;49.54
78990;BME280;68390;52.130;21.218;2023-06-22T10:23:06;100763.25;;;27.18;50.94
78990;BME280;68390;52.130;21.218;2023-06-22T10:25:32;100756.84;;;27.28;46.40
78990;BME280;68390;52.130;21.218;2023-06-22T10:27:57;100754.34;;;27.36;49.58
78990;BME280;68390;52.130;21.218;2023-06-22T10:30:23;100749.00;;;27.40;46.11
78990;BME280;68390;52.130;21.218;2023-06-22T10:32:48;100757.22;;;27.52;46.58
78990;BME280;68390;52.130;21.218;2023-06-22T10:35:14;100755.66;;;27.61;48.58
78990;BME280;68390;52.130;21.218;2023-06-22T10:37:44;100759.34;;;27.66;46.56
78990;BME280;68390;52.130;21.218;2023-06-22T10:40:14;100751.41;;;27.58;45.50
78990;BME280;68390;52.130;21.218;2023-06-22T10:42:40;100741.81;;;27.59;44.49
78990;BME280;68390;52.130;21.218;2023-06-22T10:45:06;100736.75;;;27.66;46.78
78990;BME280;68390;52.130;21.218;2023-06-22T10:47:32;100734.25;;;27.75;46.19
78990;BME280;68390;52.130;21.218;2023-06-22T10:49:57;100739.66;;;27.82;45.49
78990;BME280;68390;52.130;21.218;2023-06-22T10:52:22;100730.63;;;27.85;44.86
78990;BME280;68390;52.130;21.218;2023-06-22T10:54:48;100735.72;;;27.88;43.65
78990;BME280;68390;52.130;21.218;2023-06-22T10:57:14;100735.41;;;27.79;40.73
78990;BME280;68390;52.130;21.218;2023-06-22T10:59:39;100739.94;;;27.85;44.15
78990;BME280;68390;52.130;21.218;2023-06-22T11:02:05;100729.78;;;27.89;45.26
78990;BME280;68390;52.130;21.218;2023-06-22T11:04:30;100728.38;;;27.87;42.98
78990;BME280;68390;52.130;21.218;2023-06-22T11:07:01;100722.75;;;27.92;44.20
78990;BME280;68390;52.130;21.218;2023-06-22T11:09:27;100721.09;;;28.01;45.24
78990;BME280;68390;52.130;21.218;2023-06-22T11:11:52;100721.97;;;28.11;45.78
78990;BME280;68390;52.130;21.218;2023-06-22T11:14:21;100720.00;;;28.17;45.17
78990;BME280;68390;52.130;21.218;2023-06-22T11:16:47;100727.03;;;28.14;41.65
78990;BME280;68390;52.130;21.218;2023-06-22T11:19:13;100712.91;;;28.09;43.22
78990;BME280;68390;52.130;21.218;2023-06-22T11:21:38;100726.75;;;28.11;42.21
78990;BME280;68390;52.130;21.218;2023-06-22T11:24:04;100717.22;;;28.22;44.70
78990;BME280;68390;52.130;21.218;2023-06-22T11:26:29;100716.09;;;28.28;45.31
78990;BME280;68390;52.130;21.218;2023-06-22T11:28:55;100720.06;;;28.37;43.59
78990;BME280;68390;52.130;21.218;2023-06-22T11:31:21;100705.06;;;28.22;42.75
78990;BME280;68390;52.130;21.218;2023-06-22T11:33:46;100702.81;;;28.29;41.15
78990;BME280;68390;52.130;21.218;2023-06-22T11:36:13;100715.25;;;28.33;44.15
78990;BME280;68390;52.130;21.218;2023-06-22T11:38:39;100703.09;;;28.37;44.79
78990;BME280;68390;52.130;21.218;2023-06-22T11:41:08;100705.34;;;28.35;46.62
78990;BME280;68390;52.130;21.218;2023-06-22T11:43:33;100710.16;;;28.40;46.13
78990;BME280;68390;52.130;21.218;2023-06-22T11:46:00;100719.47;;;28.30;38.71
78990;BME280;68390;52.130;21.218;2023-06-22T11:48:26;100704.78;;;28.28;39.10
78990;BME280;68390;52.130;21.218;2023-06-22T11:50:51;100701.97;;;28.23;40.84
78990;BME280;68390;52.130;21.218;2023-06-22T11:53:17;100705.09;;;28.32;42.01
78990;BME280;68390;52.130;21.218;2023-06-22T11:55:46;100700.56;;;28.36;43.30
78990;BME280;68390;52.130;21.218;2023-06-22T11:58:11;100700.00;;;28.39;42.50
78990;BME280;68390;52.130;21.218;2023-06-22T12:00:37;100709.34;;;28.44;42.13
78990;BME280;68390;52.130;21.218;2023-06-22T12:03:02;100720.63;;;28.49;42.69
78990;BME280;68390;52.130;21.218;2023-06-22T12:05:28;100713.56;;;28.47;39.73
78990;BME280;68390;52.130;21.218;2023-06-22T12:07:54;100704.25;;;28.31;40.04
78990;BME280;68390;52.130;21.218;2023-06-22T12:10:20;100710.72;;;28.32;41.54
78990;BME280;68390;52.130;21.218;2023-06-22T12:12:46;100702.53;;;28.40;41.86
78990;BME280;68390;52.130;21.218;2023-06-22T12:15:11;100711.59;;;28.42;42.38
78990;BME280;68390;52.130;21.218;2023-06-22T12:17:36;100711.00;;;28.45;42.26
78990;BME280;68390;52.130;21.218;2023-06-22T12:20:02;100708.75;;;28.27;39.94
78990;BME280;68390;52.130;21.218;2023-06-22T12:22:32;100700.84;;;28.29;42.36
78990;BME280;68390;52.130;21.218;2023-06-22T12:24:57;100703.09;;;28.37;43.96
78990;BME280;68390;52.130;21.218;2023-06-22T12:27:23;100698.03;;;28.39;39.59
78990;BME280;68390;52.130;21.218;2023-06-22T12:29:48;100700.28;;;28.37;41.45
78990;BME280;68390;52.130;21.218;2023-06-22T12:32:14;100696.88;;;28.35;41.35
78990;BME280;68390;52.130;21.218;2023-06-22T12:34:42;100699.41;;;28.37;43.15
78990;BME280;68390;52.130;21.218;2023-06-22T12:37:07;100693.50;;;28.43;42.74